sensor_id;sensor_type;location;lat;lon;timestamp;temperature;humidity
78212;SHT31;67490;52.086;5.122;2024-01-07T00:01:08;6.88;60.86
78212;SHT31;67490;52.086;5.122;2024-01-07T00:03:54;6.45;61.06
78212;SHT31;67490;52.086;5.122;2024-01-07T00:06:39;6.61;62.05
78212;SHT31;67490;52.086;5.122;2024-01-07T00:09:24;6.76;61.21
78212;SHT31;67490;52.086;5.122;2024-01-07T00:12:08;6.99;61.09
78212;SHT31;67490;52.086;5.122;2024-01-07T00:14:52;7.00;60.68
78212;SHT31;67490;52.086;5.122;2024-01-07T00:17:37;7.03;60.51
78212;SHT31;67490;52.086;5.122;2024-01-07T00:20:21;6.63;60.52
78212;SHT31;67490;52.086;5.122;2024-01-07T00:23:07;6.37;61.94
78212;SHT31;67490;52.086;5.122;2024-01-07T00:25:51;6.40;61.62
78212;SHT31;67490;52.086;5.122;2024-01-07T00:28:35;6.52;61.97
78212;SHT31;67490;52.086;5.122;2024-01-07T00:31:20;6.55;61.87
78212;SHT31;67490;52.086;5.122;2024-01-07T00:34:04;6.72;61.66
78212;SHT31;67490;52.086;5.122;2024-01-07T00:36:48;6.68;61.28
78212;SHT31;67490;52.086;5.122;2024-01-07T00:39:34;6.79;62.44
78212;SHT31;67490;52.086;5.122;2024-01-07T00:42:18;6.54;63.29
78212;SHT31;67490;52.086;5.122;2024-01-07T00:45:03;6.79;63.52
78212;SHT31;67490;52.086;5.122;2024-01-07T00:47:48;6.69;63.07
78212;SHT31;67490;52.086;5.122;2024-01-07T00:50:32;6.58;63.51
78212;SHT31;67490;52.086;5.122;2024-01-07T00:53:17;6.63;63.46
78212;SHT31;67490;52.086;5.122;2024-01-07T00:56:02;6.64;63.63
78212;SHT31;67490;52.086;5.122;2024-01-07T00:58:46;6.64;63.38
78212;SHT31;67490;52.086;5.122;2024-01-07T01:01:31;6.67;63.46
78212;SHT31;67490;52.086;5.122;2024-01-07T01:04:15;6.78;63.25
78212;SHT31;67490;52.086;5.122;2024-01-07T01:07:00;6.91;63.43
78212;SHT31;67490;52.086;5.122;2024-01-07T01:09:44;7.09;62.82
78212;SHT31;67490;52.086;5.122;2024-01-07T01:12:30;6.59;63.76
78212;SHT31;67490;52.086;5.122;2024-01-07T01:15:14;6.48;63.67
78212;SHT31;67490;52.086;5.122;2024-01-07T01:18:00;6.49;63.74
78212;SHT31;67490;52.086;5.122;2024-01-07T01:20:45;6.61;63.56
78212;SHT31;67490;52.086;5.122;2024-01-07T01:23:29;6.45;63.79
78212;SHT31;67490;52.086;5.122;2024-01-07T01:26:13;6.65;63.57
78212;SHT31;67490;52.086;5.122;2024-01-07T01:28:59;6.69;62.53
78212;SHT31;67490;52.086;5.122;2024-01-07T01:31:44;6.10;63.72
78212;SHT31;67490;52.086;5.122;2024-01-07T01:34:28;6.42;63.85
78212;SHT31;67490;52.086;5.122;2024-01-07T01:37:12;6.57;63.21
78212;SHT31;67490;52.086;5.122;2024-01-07T01:39:57;6.48;63.31
78212;SHT31;67490;52.086;5.122;2024-01-07T01:42:42;6.47;63.03
78212;SHT31;67490;52.086;5.122;2024-01-07T01:45:28;6.38;63.54
78212;SHT31;67490;52.086;5.122;2024-01-07T01:48:13;6.55;64.28
78212;SHT31;67490;52.086;5.122;2024-01-07T01:50:58;6.26;62.45
78212;SHT31;67490;52.086;5.122;2024-01-07T01:53:42;6.21;64.78
78212;SHT31;67490;52.086;5.122;2024-01-07T01:56:27;6.57;63.57
78212;SHT31;67490;52.086;5.122;2024-01-07T01:59:14;6.21;63.38
78212;SHT31;67490;52.086;5.122;2024-01-07T02:02:00;6.55;63.05
78212;SHT31;67490;52.086;5.122;2024-01-07T02:04:45;6.72;62.94
78212;SHT31;67490;52.086;5.122;2024-01-07T02:07:30;6.40;62.36
78212;SHT31;67490;52.086;5.122;2024-01-07T02:10:15;6.23;63.54
78212;SHT31;67490;52.086;5.122;2024-01-07T02:12:59;5.75;64.00
78212;SHT31;67490;52.086;5.122;2024-01-07T02:15:44;5.87;64.56
78212;SHT31;67490;52.086;5.122;2024-01-07T02:18:30;6.16;63.70
78212;SHT31;67490;52.086;5.122;2024-01-07T02:21:15;5.58;64.50
78212;SHT31;67490;52.086;5.122;2024-01-07T02:24:05;5.95;64.96
78212;SHT31;67490;52.086;5.122;2024-01-07T02:26:49;6.30;63.77
78212;SHT31;67490;52.086;5.122;2024-01-07T02:29:34;6.41;63.20
78212;SHT31;67490;52.086;5.122;2024-01-07T02:32:18;6.44;62.79
78212;SHT31;67490;52.086;5.122;2024-01-07T02:35:02;6.42;62.62
78212;SHT31;67490;52.086;5.122;2024-01-07T02:37:46;6.27;63.36
78212;SHT31;67490;52.086;5.122;2024-01-07T02:40:32;5.90;63.48
78212;SHT31;67490;52.086;5.122;2024-01-07T02:43:16;6.03;63.54
78212;SHT31;67490;52.086;5.122;2024-01-07T02:46:01;6.06;64.16
78212;SHT31;67490;52.086;5.122;2024-01-07T02:48:45;6.06;64.45
78212;SHT31;67490;52.086;5.122;2024-01-07T02:51:29;6.34;65.41
78212;SHT31;67490;52.086;5.122;2024-01-07T02:54:13;5.49;65.83
78212;SHT31;67490;52.086;5.122;2024-01-07T02:56:58;5.58;65.89
78212;SHT31;67490;52.086;5.122;2024-01-07T02:59:43;5.92;64.22
78212;SHT31;67490;52.086;5.122;2024-01-07T03:02:27;5.87;63.75
78212;SHT31;67490;52.086;5.122;2024-01-07T03:05:11;6.09;63.49
78212;SHT31;67490;52.086;5.122;2024-01-07T03:07:55;5.89;63.76
78212;SHT31;67490;52.086;5.122;2024-01-07T03:10:39;5.38;64.80
78212;SHT31;67490;52.086;5.122;2024-01-07T03:13:24;5.72;64.40
78212;SHT31;67490;52.086;5.122;2024-01-07T03:16:19;5.86;64.12
78212;SHT31;67490;52.086;5.122;2024-01-07T03:19:03;5.90;63.14
78212;SHT31;67490;52.086;5.122;2024-01-07T03:21:49;5.76;64.03
78212;SHT31;67490;52.086;5.122;2024-01-07T03:24:33;5.32;64.66
78212;SHT31;67490;52.086;5.122;2024-01-07T03:27:17;5.45;64.96
78212;SHT31;67490;52.086;5.122;2024-01-07T03:30:04;5.62;63.67
78212;SHT31;67490;52.086;5.122;2024-01-07T03:32:48;5.52;63.49
78212;SHT31;67490;52.086;5.122;2024-01-07T03:35:32;6.13;63.19
78212;SHT31;67490;52.086;5.122;2024-01-07T03:38:17;5.80;63.16
78212;SHT31;67490;52.086;5.122;2024-01-07T03:41:01;5.39;64.65
78212;SHT31;67490;52.086;5.122;2024-01-07T03:43:46;5.28;65.28
78212;SHT31;67490;52.086;5.122;2024-01-07T03:46:32;5.47;64.54
78212;SHT31;67490;52.086;5.122;2024-01-07T03:49:16;6.16;65.12
78212;SHT31;67490;52.086;5.122;2024-01-07T03:52:02;6.44;63.81
78212;SHT31;67490;52.086;5.122;2024-01-07T03:54:46;6.51;62.33
78212;SHT31;67490;52.086;5.122;2024-01-07T03:57:31;5.49;64.07
78212;SHT31;67490;52.086;5.122;2024-01-07T04:00:17;5.97;63.77
78212;SHT31;67490;52.086;5.122;2024-01-07T04:03:03;6.13;63.46
78212;SHT31;67490;52.086;5.122;2024-01-07T04:05:47;6.00;62.84
78212;SHT31;67490;52.086;5.122;2024-01-07T04:08:32;6.34;62.90
78212;SHT31;67490;52.086;5.122;2024-01-07T04:11:16;5.95;63.45
78212;SHT31;67490;52.086;5.122;2024-01-07T04:14:00;6.24;62.91
78212;SHT31;67490;52.086;5.122;2024-01-07T04:16:44;6.30;62.80
78212;SHT31;67490;52.086;5.122;2024-01-07T04:19:29;6.52;62.44
78212;SHT31;67490;52.086;5.122;2024-01-07T04:22:14;6.54;62.07
78212;SHT31;67490;52.086;5.122;2024-01-07T04:24:58;6.40;62.34
78212;SHT31;67490;52.086;5.122;2024-01-07T04:27:42;5.93;63.27
78212;SHT31;67490;52.086;5.122;2024-01-07T04:30:27;5.75;63.69
78212;SHT31;67490;52.086;5.122;2024-01-07T04:33:12;5.68;64.28
78212;SHT31;67490;52.086;5.122;2024-01-07T04:35:57;6.03;63.67
78212;SHT31;67490;52.086;5.122;2024-01-07T04:38:43;6.28;62.81
78212;SHT31;67490;52.086;5.122;2024-01-07T04:41:27;5.85;62.87
78212;SHT31;67490;52.086;5.122;2024-01-07T04:44:11;5.87;63.26
78212;SHT31;67490;52.086;5.122;2024-01-07T04:46:55;5.85;62.37
78212;SHT31;67490;52.086;5.122;2024-01-07T04:49:39;5.68;64.53
78212;SHT31;67490;52.086;5.122;2024-01-07T04:52:25;5.97;63.87
78212;SHT31;67490;52.086;5.122;2024-01-07T04:55:09;6.28;62.37
78212;SHT31;67490;52.086;5.122;2024-01-07T04:57:54;5.82;62.89
78212;SHT31;67490;52.086;5.122;2024-01-07T05:00:38;6.11;62.37
78212;SHT31;67490;52.086;5.122;2024-01-07T05:03:22;6.24;61.65
78212;SHT31;67490;52.086;5.122;2024-01-07T05:06:08;6.37;60.63
78212;SHT31;67490;52.086;5.122;2024-01-07T05:08:54;6.33;61.57
78212;SHT31;67490;52.086;5.122;2024-01-07T05:11:39;5.80;61.63
78212;SHT31;67490;52.086;5.122;2024-01-07T05:14:23;6.16;61.25
78212;SHT31;67490;52.086;5.122;2024-01-07T05:17:09;5.62;61.91
78212;SHT31;67490;52.086;5.122;2024-01-07T05:19:53;6.09;61.24
78212;SHT31;67490;52.086;5.122;2024-01-07T05:22:37;6.00;60.26
78212;SHT31;67490;52.086;5.122;2024-01-07T05:25:22;5.48;61.55
78212;SHT31;67490;52.086;5.122;2024-01-07T05:28:07;5.31;62.69
78212;SHT31;67490;52.086;5.122;2024-01-07T05:30:51;5.83;61.74
78212;SHT31;67490;52.086;5.122;2024-01-07T05:33:35;5.47;62.20
78212;SHT31;67490;52.086;5.122;2024-01-07T05:36:19;5.58;62.46
78212;SHT31;67490;52.086;5.122;2024-01-07T05:39:03;5.69;61.73
78212;SHT31;67490;52.086;5.122;2024-01-07T05:41:49;5.83;62.20
78212;SHT31;67490;52.086;5.122;2024-01-07T05:44:34;5.96;60.69
78212;SHT31;67490;52.086;5.122;2024-01-07T05:47:17;6.18;60.17
78212;SHT31;67490;52.086;5.122;2024-01-07T05:50:02;5.99;60.38
78212;SHT31;67490;52.086;5.122;2024-01-07T05:52:46;5.89;60.67
78212;SHT31;67490;52.086;5.122;2024-01-07T05:55:31;5.80;61.55
78212;SHT31;67490;52.086;5.122;2024-01-07T05:58:16;6.21;62.65
78212;SHT31;67490;52.086;5.122;2024-01-07T06:01:01;6.34;60.02
78212;SHT31;67490;52.086;5.122;2024-01-07T06:03:45;6.51;59.07
78212;SHT31;67490;52.086;5.122;2024-01-07T06:06:29;6.38;59.02
78212;SHT31;67490;52.086;5.122;2024-01-07T06:09:13;6.69;58.87
78212;SHT31;67490;52.086;5.122;2024-01-07T06:11:58;6.42;59.35
78212;SHT31;67490;52.086;5.122;2024-01-07T06:14:43;6.31;59.56
78212;SHT31;67490;52.086;5.122;2024-01-07T06:17:27;6.31;59.29
78212;SHT31;67490;52.086;5.122;2024-01-07T06:20:12;6.38;59.50
78212;SHT31;67490;52.086;5.122;2024-01-07T06:22:56;6.02;60.91
78212;SHT31;67490;52.086;5.122;2024-01-07T06:25:41;6.09;60.94
78212;SHT31;67490;52.086;5.122;2024-01-07T06:28:25;6.10;60.45
78212;SHT31;67490;52.086;5.122;2024-01-07T06:31:10;5.82;61.59
78212;SHT31;67490;52.086;5.122;2024-01-07T06:33:55;5.93;61.06
78212;SHT31;67490;52.086;5.122;2024-01-07T06:36:40;5.54;62.19
78212;SHT31;67490;52.086;5.122;2024-01-07T06:39:25;5.31;62.64
78212;SHT31;67490;52.086;5.122;2024-01-07T06:42:10;5.65;61.71
78212;SHT31;67490;52.086;5.122;2024-01-07T06:44:55;5.63;62.04
78212;SHT31;67490;52.086;5.122;2024-01-07T06:47:40;5.79;61.58
78212;SHT31;67490;52.086;5.122;2024-01-07T06:50:25;5.86;61.80
78212;SHT31;67490;52.086;5.122;2024-01-07T06:53:09;5.96;60.54
78212;SHT31;67490;52.086;5.122;2024-01-07T06:55:53;5.65;61.89
78212;SHT31;67490;52.086;5.122;2024-01-07T06:58:37;5.80;61.09
78212;SHT31;67490;52.086;5.122;2024-01-07T07:01:21;5.55;61.75
78212;SHT31;67490;52.086;5.122;2024-01-07T07:04:08;5.23;63.10
78212;SHT31;67490;52.086;5.122;2024-01-07T07:06:52;5.60;61.46
78212;SHT31;67490;52.086;5.122;2024-01-07T07:09:37;5.66;61.66
78212;SHT31;67490;52.086;5.122;2024-01-07T07:12:21;5.65;60.99
78212;SHT31;67490;52.086;5.122;2024-01-07T07:15:06;5.89;60.60
78212;SHT31;67490;52.086;5.122;2024-01-07T07:17:50;6.03;60.15
78212;SHT31;67490;52.086;5.122;2024-01-07T07:20:35;5.75;60.76
78212;SHT31;67490;52.086;5.122;2024-01-07T07:23:20;6.03;60.42
78212;SHT31;67490;52.086;5.122;2024-01-07T07:26:04;6.05;60.29
78212;SHT31;67490;52.086;5.122;2024-01-07T07:28:48;6.00;60.51
78212;SHT31;67490;52.086;5.122;2024-01-07T07:31:33;5.87;60.75
78212;SHT31;67490;52.086;5.122;2024-01-07T07:34:17;6.16;60.00
78212;SHT31;67490;52.086;5.122;2024-01-07T07:37:03;6.14;59.75
78212;SHT31;67490;52.086;5.122;2024-01-07T07:39:47;6.11;59.36
78212;SHT31;67490;52.086;5.122;2024-01-07T07:42:31;5.96;59.45
78212;SHT31;67490;52.086;5.122;2024-01-07T07:45:16;5.92;59.68
78212;SHT31;67490;52.086;5.122;2024-01-07T07:48:00;5.79;60.16
78212;SHT31;67490;52.086;5.122;2024-01-07T07:50:44;6.11;62.85
78212;SHT31;67490;52.086;5.122;2024-01-07T07:53:30;6.03;59.09
78212;SHT31;67490;52.086;5.122;2024-01-07T07:56:14;5.92;58.87
78212;SHT31;67490;52.086;5.122;2024-01-07T07:58:59;6.05;59.27
78212;SHT31;67490;52.086;5.122;2024-01-07T08:01:43;6.14;59.03
78212;SHT31;67490;52.086;5.122;2024-01-07T08:04:29;5.49;59.50
78212;SHT31;67490;52.086;5.122;2024-01-07T08:07:13;5.70;59.66
78212;SHT31;67490;52.086;5.122;2024-01-07T08:09:59;5.66;60.32
78212;SHT31;67490;52.086;5.122;2024-01-07T08:12:44;5.72;60.13
78212;SHT31;67490;52.086;5.122;2024-01-07T08:15:28;5.34;60.18
78212;SHT31;67490;52.086;5.122;2024-01-07T08:18:13;5.27;60.02
78212;SHT31;67490;52.086;5.122;2024-01-07T08:20:57;5.31;59.94
78212;SHT31;67490;52.086;5.122;2024-01-07T08:23:41;5.35;59.60
78212;SHT31;67490;52.086;5.122;2024-01-07T08:26:27;5.24;59.74
78212;SHT31;67490;52.086;5.122;2024-01-07T08:29:12;5.41;59.69
78212;SHT31;67490;52.086;5.122;2024-01-07T08:31:56;5.83;58.95
78212;SHT31;67490;52.086;5.122;2024-01-07T08:34:41;5.38;59.25
78212;SHT31;67490;52.086;5.122;2024-01-07T08:37:25;5.00;60.38
78212;SHT31;67490;52.086;5.122;2024-01-07T08:40:10;5.51;59.59
78212;SHT31;67490;52.086;5.122;2024-01-07T08:42:57;5.60;59.54
78212;SHT31;67490;52.086;5.122;2024-01-07T08:45:42;5.68;59.03
78212;SHT31;67490;52.086;5.122;2024-01-07T08:48:26;5.79;59.25
78212;SHT31;67490;52.086;5.122;2024-01-07T08:51:10;5.79;58.73
78212;SHT31;67490;52.086;5.122;2024-01-07T08:53:54;5.69;58.31
78212;SHT31;67490;52.086;5.122;2024-01-07T08:56:39;5.78;59.09
78212;SHT31;67490;52.086;5.122;2024-01-07T08:59:25;5.59;58.24
78212;SHT31;67490;52.086;5.122;2024-01-07T09:02:10;5.59;59.08
78212;SHT31;67490;52.086;5.122;2024-01-07T09:04:54;5.79;59.21
78212;SHT31;67490;52.086;5.122;2024-01-07T09:07:39;5.95;58.83
78212;SHT31;67490;52.086;5.122;2024-01-07T09:10:23;5.52;58.45
78212;SHT31;67490;52.086;5.122;2024-01-07T09:13:09;5.18;58.60
78212;SHT31;67490;52.086;5.122;2024-01-07T09:15:55;4.93;61.28
78212;SHT31;67490;52.086;5.122;2024-01-07T09:18:39;5.58;58.17
78212;SHT31;67490;52.086;5.122;2024-01-07T09:21:24;5.90;56.96
78212;SHT31;67490;52.086;5.122;2024-01-07T09:24:08;5.75;56.85
78212;SHT31;67490;52.086;5.122;2024-01-07T09:26:53;5.73;58.98
78212;SHT31;67490;52.086;5.122;2024-01-07T09:29:37;5.90;57.01
78212;SHT31;67490;52.086;5.122;2024-01-07T09:32:23;5.70;56.28
78212;SHT31;67490;52.086;5.122;2024-01-07T09:35:08;6.10;59.27
78212;SHT31;67490;52.086;5.122;2024-01-07T09:37:52;5.90;58.21
78212;SHT31;67490;52.086;5.122;2024-01-07T09:40:38;6.06;59.02
78212;SHT31;67490;52.086;5.122;2024-01-07T09:43:23;5.99;56.60
78212;SHT31;67490;52.086;5.122;2024-01-07T09:46:08;5.51;56.92
78212;SHT31;67490;52.086;5.122;2024-01-07T09:48:54;5.27;58.13
78212;SHT31;67490;52.086;5.122;2024-01-07T09:51:41;5.01;59.40
78212;SHT31;67490;52.086;5.122;2024-01-07T09:54:30;5.23;59.82
78212;SHT31;67490;52.086;5.122;2024-01-07T09:57:14;4.89;59.10
78212;SHT31;67490;52.086;5.122;2024-01-07T09:59:59;5.45;58.62
78212;SHT31;67490;52.086;5.122;2024-01-07T10:02:44;5.21;58.94
78212;SHT31;67490;52.086;5.122;2024-01-07T10:05:30;5.37;57.58
78212;SHT31;67490;52.086;5.122;2024-01-07T10:08:14;5.42;58.41
78212;SHT31;67490;52.086;5.122;2024-01-07T10:10:58;5.68;58.22
78212;SHT31;67490;52.086;5.122;2024-01-07T10:13:45;6.05;57.82
78212;SHT31;67490;52.086;5.122;2024-01-07T10:16:31;6.26;55.68
78212;SHT31;67490;52.086;5.122;2024-01-07T10:19:21;5.93;55.95
78212;SHT31;67490;52.086;5.122;2024-01-07T10:22:07;5.97;56.33
78212;SHT31;67490;52.086;5.122;2024-01-07T10:24:51;5.75;57.73
78212;SHT31;67490;52.086;5.122;2024-01-07T10:27:36;5.76;58.31
78212;SHT31;67490;52.086;5.122;2024-01-07T10:30:22;6.06;58.99
78212;SHT31;67490;52.086;5.122;2024-01-07T10:33:07;6.23;56.61
78212;SHT31;67490;52.086;5.122;2024-01-07T10:35:54;5.14;57.20
78212;SHT31;67490;52.086;5.122;2024-01-07T10:38:44;5.49;57.14
78212;SHT31;67490;52.086;5.122;2024-01-07T10:41:31;5.16;57.39
78212;SHT31;67490;52.086;5.122;2024-01-07T10:44:15;5.55;56.69
78212;SHT31;67490;52.086;5.122;2024-01-07T10:47:06;5.41;56.89
78212;SHT31;67490;52.086;5.122;2024-01-07T10:49:55;5.51;55.42
78212;SHT31;67490;52.086;5.122;2024-01-07T10:52:41;5.56;55.74
78212;SHT31;67490;52.086;5.122;2024-01-07T10:55:33;5.85;55.41
78212;SHT31;67490;52.086;5.122;2024-01-07T10:58:20;5.96;55.43
78212;SHT31;67490;52.086;5.122;2024-01-07T11:01:04;5.86;54.59
78212;SHT31;67490;52.086;5.122;2024-01-07T11:03:59;5.92;56.62
78212;SHT31;67490;52.086;5.122;2024-01-07T11:06:52;5.86;53.31
78212;SHT31;67490;52.086;5.122;2024-01-07T11:09:46;5.47;54.58
78212;SHT31;67490;52.086;5.122;2024-01-07T11:12:36;5.87;54.10
78212;SHT31;67490;52.086;5.122;2024-01-07T11:15:50;5.79;53.19
78212;SHT31;67490;52.086;5.122;2024-01-07T11:18:39;5.83;53.10
78212;SHT31;67490;52.086;5.122;2024-01-07T11:21:23;5.31;53.77
78212;SHT31;67490;52.086;5.122;2024-01-07T11:24:40;6.03;53.18
78212;SHT31;67490;52.086;5.122;2024-01-07T11:27:28;5.92;52.21
78212;SHT31;67490;52.086;5.122;2024-01-07T11:30:19;6.24;52.40
78212;SHT31;67490;52.086;5.122;2024-01-07T11:33:04;5.44;52.68
78212;SHT31;67490;52.086;5.122;2024-01-07T11:35:55;5.83;52.20
78212;SHT31;67490;52.086;5.122;2024-01-07T11:38:44;5.38;54.06
78212;SHT31;67490;52.086;5.122;2024-01-07T11:41:33;5.63;53.24
78212;SHT31;67490;52.086;5.122;2024-01-07T11:44:18;5.93;52.30
78212;SHT31;67490;52.086;5.122;2024-01-07T11:47:04;5.95;52.52
78212;SHT31;67490;52.086;5.122;2024-01-07T11:49:49;6.13;55.09
78212;SHT31;67490;52.086;5.122;2024-01-07T11:52:34;6.40;51.84
78212;SHT31;67490;52.086;5.122;2024-01-07T11:55:21;6.48;51.01
78212;SHT31;67490;52.086;5.122;2024-01-07T11:58:06;6.33;51.56
78212;SHT31;67490;52.086;5.122;2024-01-07T12:00:50;6.61;50.34
78212;SHT31;67490;52.086;5.122;2024-01-07T12:03:36;6.06;51.07
78212;SHT31;67490;52.086;5.122;2024-01-07T12:06:20;6.03;51.44
78212;SHT31;67490;52.086;5.122;2024-01-07T12:09:05;5.99;50.62
78212;SHT31;67490;52.086;5.122;2024-01-07T12:11:50;5.78;50.17
78212;SHT31;67490;52.086;5.122;2024-01-07T12:14:35;6.13;50.35
78212;SHT31;67490;52.086;5.122;2024-01-07T12:17:19;6.23;49.57
78212;SHT31;67490;52.086;5.122;2024-01-07T12:20:06;6.06;50.19
78212;SHT31;67490;52.086;5.122;2024-01-07T12:22:52;6.02;49.83
78212;SHT31;67490;52.086;5.122;2024-01-07T12:25:36;6.30;49.82
78212;SHT31;67490;52.086;5.122;2024-01-07T12:28:21;6.17;50.63
78212;SHT31;67490;52.086;5.122;2024-01-07T12:31:07;5.99;49.76
78212;SHT31;67490;52.086;5.122;2024-01-07T12:33:52;6.20;48.85
78212;SHT31;67490;52.086;5.122;2024-01-07T12:36:41;6.14;49.42
78212;SHT31;67490;52.086;5.122;2024-01-07T12:39:25;5.87;49.94
78212;SHT31;67490;52.086;5.122;2024-01-07T12:42:10;6.03;49.49
78212;SHT31;67490;52.086;5.122;2024-01-07T12:44:54;5.72;49.28
78212;SHT31;67490;52.086;5.122;2024-01-07T12:47:40;6.06;48.70
78212;SHT31;67490;52.086;5.122;2024-01-07T12:50:24;5.68;49.08
78212;SHT31;67490;52.086;5.122;2024-01-07T12:53:13;5.70;49.10
78212;SHT31;67490;52.086;5.122;2024-01-07T12:55:58;5.68;49.21
78212;SHT31;67490;52.086;5.122;2024-01-07T12:58:42;5.63;49.18
78212;SHT31;67490;52.086;5.122;2024-01-07T13:01:27;5.78;48.75
78212;SHT31;67490;52.086;5.122;2024-01-07T13:04:11;5.69;48.98
78212;SHT31;67490;52.086;5.122;2024-01-07T13:06:56;6.06;48.81
78212;SHT31;67490;52.086;5.122;2024-01-07T13:09:42;6.11;49.34
78212;SHT31;67490;52.086;5.122;2024-01-07T13:12:28;6.31;48.23
78212;SHT31;67490;52.086;5.122;2024-01-07T13:15:12;5.99;48.74
78212;SHT31;67490;52.086;5.122;2024-01-07T13:17:57;5.66;48.39
78212;SHT31;67490;52.086;5.122;2024-01-07T13:20:41;5.76;48.20
78212;SHT31;67490;52.086;5.122;2024-01-07T13:23:25;6.07;48.25
78212;SHT31;67490;52.086;5.122;2024-01-07T13:26:12;6.00;48.31
78212;SHT31;67490;52.086;5.122;2024-01-07T13:28:56;5.92;48.69
78212;SHT31;67490;52.086;5.122;2024-01-07T13:31:41;6.17;48.92
78212;SHT31;67490;52.086;5.122;2024-01-07T13:34:25;6.09;48.00
78212;SHT31;67490;52.086;5.122;2024-01-07T13:37:09;5.66;49.56
78212;SHT31;67490;52.086;5.122;2024-01-07T13:39:54;5.68;49.02
78212;SHT31;67490;52.086;5.122;2024-01-07T13:42:40;5.60;49.74
78212;SHT31;67490;52.086;5.122;2024-01-07T13:45:24;5.28;50.12
78212;SHT31;67490;52.086;5.122;2024-01-07T13:48:09;5.73;50.09
78212;SHT31;67490;52.086;5.122;2024-01-07T13:50:54;5.56;49.62
78212;SHT31;67490;52.086;5.122;2024-01-07T13:53:39;5.39;49.45
78212;SHT31;67490;52.086;5.122;2024-01-07T13:56:23;5.87;49.89
78212;SHT31;67490;52.086;5.122;2024-01-07T13:59:08;6.17;48.78
78212;SHT31;67490;52.086;5.122;2024-01-07T14:01:53;6.37;48.76
78212;SHT31;67490;52.086;5.122;2024-01-07T14:04:37;5.87;48.68
78212;SHT31;67490;52.086;5.122;2024-01-07T14:07:21;6.21;49.50
78212;SHT31;67490;52.086;5.122;2024-01-07T14:10:07;6.28;51.95
78212;SHT31;67490;52.086;5.122;2024-01-07T14:12:52;6.65;51.02
78212;SHT31;67490;52.086;5.122;2024-01-07T14:15:38;6.31;49.07
78212;SHT31;67490;52.086;5.122;2024-01-07T14:18:22;5.60;49.25
78212;SHT31;67490;52.086;5.122;2024-01-07T14:21:07;5.68;49.96
78212;SHT31;67490;52.086;5.122;2024-01-07T14:23:53;6.06;49.16
78212;SHT31;67490;52.086;5.122;2024-01-07T14:26:37;5.68;49.45
78212;SHT31;67490;52.086;5.122;2024-01-07T14:29:21;6.07;49.44
78212;SHT31;67490;52.086;5.122;2024-01-07T14:32:07;6.30;50.45
78212;SHT31;67490;52.086;5.122;2024-01-07T14:34:51;6.52;48.55
78212;SHT31;67490;52.086;5.122;2024-01-07T14:37:35;6.63;47.29
78212;SHT31;67490;52.086;5.122;2024-01-07T14:40:19;6.30;47.29
78212;SHT31;67490;52.086;5.122;2024-01-07T14:43:04;6.17;48.69
78212;SHT31;67490;52.086;5.122;2024-01-07T14:45:48;6.13;47.12
78212;SHT31;67490;52.086;5.122;2024-01-07T14:48:35;6.34;47.24
78212;SHT31;67490;52.086;5.122;2024-01-07T14:51:20;6.34;47.49
78212;SHT31;67490;52.086;5.122;2024-01-07T14:54:04;6.34;47.76
78212;SHT31;67490;52.086;5.122;2024-01-07T14:56:49;6.10;47.09
78212;SHT31;67490;52.086;5.122;2024-01-07T14:59:34;6.18;47.36
78212;SHT31;67490;52.086;5.122;2024-01-07T15:02:20;5.99;47.37
78212;SHT31;67490;52.086;5.122;2024-01-07T15:05:07;6.21;47.60
78212;SHT31;67490;52.086;5.122;2024-01-07T15:07:52;6.31;47.58
78212;SHT31;67490;52.086;5.122;2024-01-07T15:10:37;6.47;47.51
78212;SHT31;67490;52.086;5.122;2024-01-07T15:13:21;6.26;47.17
78212;SHT31;67490;52.086;5.122;2024-01-07T15:16:07;6.23;47.04
78212;SHT31;67490;52.086;5.122;2024-01-07T15:18:51;6.11;47.96
78212;SHT31;67490;52.086;5.122;2024-01-07T15:21:37;6.23;47.97
78212;SHT31;67490;52.086;5.122;2024-01-07T15:24:21;6.27;48.27
78212;SHT31;67490;52.086;5.122;2024-01-07T15:27:06;6.18;49.67
78212;SHT31;67490;52.086;5.122;2024-01-07T15:29:50;6.36;47.72
78212;SHT31;67490;52.086;5.122;2024-01-07T15:32:35;6.59;49.36
78212;SHT31;67490;52.086;5.122;2024-01-07T15:35:19;6.44;48.24
78212;SHT31;67490;52.086;5.122;2024-01-07T15:38:06;6.64;48.65
78212;SHT31;67490;52.086;5.122;2024-01-07T15:40:50;6.61;48.34
78212;SHT31;67490;52.086;5.122;2024-01-07T15:43:35;6.57;47.73
78212;SHT31;67490;52.086;5.122;2024-01-07T15:46:19;6.27;48.63
78212;SHT31;67490;52.086;5.122;2024-01-07T15:49:03;6.16;48.10
78212;SHT31;67490;52.086;5.122;2024-01-07T15:51:48;6.21;48.52
78212;SHT31;67490;52.086;5.122;2024-01-07T15:54:34;6.05;48.48
78212;SHT31;67490;52.086;5.122;2024-01-07T15:57:18;5.65;48.36
78212;SHT31;67490;52.086;5.122;2024-01-07T16:00:04;5.62;48.96
78212;SHT31;67490;52.086;5.122;2024-01-07T16:02:49;5.56;49.80
78212;SHT31;67490;52.086;5.122;2024-01-07T16:05:34;5.87;49.64
78212;SHT31;67490;52.086;5.122;2024-01-07T16:08:19;6.00;48.94
78212;SHT31;67490;52.086;5.122;2024-01-07T16:11:06;6.14;49.19
78212;SHT31;67490;52.086;5.122;2024-01-07T16:13:51;6.09;49.23
78212;SHT31;67490;52.086;5.122;2024-01-07T16:16:36;6.00;49.26
78212;SHT31;67490;52.086;5.122;2024-01-07T16:19:25;5.86;49.87
78212;SHT31;67490;52.086;5.122;2024-01-07T16:22:09;5.18;50.43
78212;SHT31;67490;52.086;5.122;2024-01-07T16:24:55;5.58;51.72
78212;SHT31;67490;52.086;5.122;2024-01-07T16:27:41;5.90;51.86
78212;SHT31;67490;52.086;5.122;2024-01-07T16:30:25;6.07;50.81
78212;SHT31;67490;52.086;5.122;2024-01-07T16:33:10;6.16;50.54
78212;SHT31;67490;52.086;5.122;2024-01-07T16:35:55;5.54;49.84
78212;SHT31;67490;52.086;5.122;2024-01-07T16:38:39;5.62;50.76
78212;SHT31;67490;52.086;5.122;2024-01-07T16:41:24;5.92;51.40
78212;SHT31;67490;52.086;5.122;2024-01-07T16:44:10;5.60;50.80
78212;SHT31;67490;52.086;5.122;2024-01-07T16:46:54;5.75;50.40
78212;SHT31;67490;52.086;5.122;2024-01-07T16:49:39;5.72;50.81
78212;SHT31;67490;52.086;5.122;2024-01-07T16:52:23;5.45;51.89
78212;SHT31;67490;52.086;5.122;2024-01-07T16:55:08;5.27;51.97
78212;SHT31;67490;52.086;5.122;2024-01-07T16:57:52;5.32;52.12
78212;SHT31;67490;52.086;5.122;2024-01-07T17:00:38;5.37;53.42
78212;SHT31;67490;52.086;5.122;2024-01-07T17:03:23;5.38;54.01
78212;SHT31;67490;52.086;5.122;2024-01-07T17:06:07;5.21;53.64
78212;SHT31;67490;52.086;5.122;2024-01-07T17:08:54;5.41;53.02
78212;SHT31;67490;52.086;5.122;2024-01-07T17:11:38;5.66;55.21
78212;SHT31;67490;52.086;5.122;2024-01-07T17:14:25;5.86;62.44
78212;SHT31;67490;52.086;5.122;2024-01-07T17:17:11;5.75;54.57
78212;SHT31;67490;52.086;5.122;2024-01-07T17:19:56;5.72;55.38
78212;SHT31;67490;52.086;5.122;2024-01-07T17:22:41;5.83;54.33
78212;SHT31;67490;52.086;5.122;2024-01-07T17:25:25;5.78;53.32
78212;SHT31;67490;52.086;5.122;2024-01-07T17:28:10;5.39;53.30
78212;SHT31;67490;52.086;5.122;2024-01-07T17:30:54;5.55;53.15
78212;SHT31;67490;52.086;5.122;2024-01-07T17:33:40;5.76;53.36
78212;SHT31;67490;52.086;5.122;2024-01-07T17:36:25;5.62;52.61
78212;SHT31;67490;52.086;5.122;2024-01-07T17:39:09;5.76;54.11